Time;durP1;ratioP1;P1;durP2;ratioP2;P2;SDS_P1;SDS_P2;PMS_P1;PMS_P2;Temp;Humidity;BMP_temperature;BMP_pressure;BME280_temperature;BME280_humidity;BME280_pressure;Samples;Min_cycle;Max_cycle;Signal;HPM_P1;HPM_P2
2022/05/12 00:01:37;;;;;;;9.73;4.40;;;19.20;86.80;;;;;;4989737;28;20858;-54
2022/05/12 00:04:05;;;;;;;4.53;4.23;;;19.20;85.90;;;;;;5013905;28;20484;-55
2022/05/12 00:06:32;;;;;;;6.80;3.97;;;19.20;86.20;;;;;;5011398;28;22286;-55
2022/05/12 00:08:59;;;;;;;11.07;4.43;;;19.20;86.10;;;;;;5012909;28;20481;-54
2022/05/12 00:11:25;;;;;;;4.73;4.27;;;19.20;86.00;;;;;;5021088;28;20499;-54
2022/05/12 00:13:52;;;;;;;4.10;3.47;;;19.10;85.90;;;;;;5018531;28;20485;-55
2022/05/12 00:16:19;;;;;;;4.90;3.60;;;19.10;86.00;;;;;;5020983;28;20489;-55
2022/05/12 00:18:45;;;;;;;5.37;3.97;;;19.10;85.40;;;;;;5020193;28;20551;-55
2022/05/12 00:21:13;;;;;;;5.83;3.73;;;19.10;85.50;;;;;;5018830;28;20578;-54
2022/05/12 00:23:40;;;;;;;6.23;4.00;;;19.00;85.20;;;;;;5007354;28;20561;-55
2022/05/12 00:26:07;;;;;;;11.83;4.50;;;19.00;85.50;;;;;;5022761;28;20488;-54
2022/05/12 00:28:33;;;;;;;5.13;3.70;;;19.00;85.30;;;;;;5020889;28;20490;-54
2022/05/12 00:31:00;;;;;;;3.43;3.13;;;19.00;84.40;;;;;;5018150;28;20488;-54
2022/05/12 00:33:28;;;;;;;5.30;3.60;;;19.10;84.40;;;;;;5020337;28;20477;-54
2022/05/12 00:35:57;;;;;;;11.23;3.43;;;19.10;84.30;;;;;;5013553;28;20488;-54
2022/05/12 00:38:25;;;;;;;6.93;3.33;;;19.20;84.70;;;;;;5006662;28;20484;-53
2022/05/12 00:40:52;;;;;;;13.63;3.57;;;19.20;84.40;;;;;;5021734;28;20491;-54
2022/05/12 00:43:41;;;;;;;5.23;3.10;;;19.20;84.20;;;;;;5020798;28;20814;-54
2022/05/12 00:46:10;;;;;;;5.73;3.40;;;19.20;84.10;;;;;;5020711;28;20554;-54
2022/05/12 00:48:37;;;;;;;8.50;3.43;;;19.20;84.00;;;;;;5021572;28;20482;-53
2022/05/12 00:51:05;;;;;;;4.90;3.50;;;19.30;84.00;;;;;;5021120;28;20578;-54
2022/05/12 00:53:35;;;;;;;4.07;2.70;;;19.30;83.80;;;;;;5022820;28;20487;-53
2022/05/12 00:56:04;;;;;;;4.27;3.10;;;19.30;83.60;;;;;;5022349;28;20539;-55
2022/05/12 00:58:32;;;;;;;4.50;3.53;;;19.30;83.50;;;;;;5022692;28;20477;-54
2022/05/12 01:01:00;;;;;;;3.07;2.77;;;19.40;83.70;;;;;;5021324;28;20990;-54
2022/05/12 01:03:28;;;;;;;4.50;3.20;;;19.40;83.50;;;;;;5021891;28;20474;-53
2022/05/12 01:05:56;;;;;;;4.73;2.60;;;19.40;83.10;;;;;;5020925;28;20942;-53
2022/05/12 01:08:23;;;;;;;6.90;3.13;;;19.40;83.30;;;;;;5020740;28;20741;-55
2022/05/12 01:11:00;;;;;;;5.70;3.53;;;19.40;83.40;;;;;;5021651;28;20484;-54
2022/05/12 01:13:28;;;;;;;9.17;3.60;;;19.30;83.70;;;;;;5022436;28;20540;-54
2022/05/12 01:15:57;;;;;;;3.40;3.10;;;19.30;83.80;;;;;;5023359;28;20488;-55
2022/05/12 01:18:25;;;;;;;3.70;3.40;;;19.20;83.80;;;;;;5020744;28;20551;-56
2022/05/12 01:20:53;;;;;;;3.40;3.10;;;19.20;84.10;;;;;;5019624;28;20542;-55
2022/05/12 01:23:26;;;;;;;4.10;2.70;;;19.10;84.40;;;;;;5020030;28;21050;-56
2022/05/12 01:25:57;;;;;;;3.50;3.20;;;19.10;84.40;;;;;;5019801;28;20849;-54
2022/05/12 01:28:24;;;;;;;4.57;4.10;;;19.00;84.20;;;;;;5021879;28;20568;-54
2022/05/12 01:30:51;;;;;;;4.83;3.80;;;19.00;84.80;;;;;;5021218;28;20484;-54
2022/05/12 01:33:17;;;;;;;3.53;3.27;;;18.90;84.60;;;;;;5022691;28;20554;-54
2022/05/12 01:35:44;;;;;;;3.20;3.00;;;18.90;85.00;;;;;;5019678;28;20480;-55
2022/05/12 01:38:13;;;;;;;4.17;2.90;;;18.90;85.00;;;;;;5021760;28;20498;-54
2022/05/12 01:40:43;;;;;;;4.60;2.87;;;18.80;85.60;;;;;;5018353;28;20841;-55
2022/05/12 01:43:10;;;;;;;4.33;2.90;;;18.80;85.50;;;;;;5021207;28;20477;-54
2022/05/12 01:45:36;;;;;;;3.23;2.90;;;18.80;85.60;;;;;;5021136;28;20487;-54
2022/05/12 01:48:04;;;;;;;6.10;3.30;;;18.70;85.70;;;;;;5020429;28;20484;-55
2022/05/12 01:50:31;;;;;;;4.03;3.07;;;18.70;86.20;;;;;;5021997;28;20480;-54
2022/05/12 01:52:58;;;;;;;6.23;3.10;;;18.60;86.20;;;;;;5020456;28;20542;-55
2022/05/12 01:55:26;;;;;;;4.37;3.30;;;18.60;86.40;;;;;;5021568;28;20909;-54
2022/05/12 01:57:55;;;;;;;3.37;3.00;;;18.50;86.50;;;;;;5018808;28;20910;-55
2022/05/12 02:00:24;;;;;;;4.87;3.03;;;18.40;86.60;;;;;;5021243;28;20484;-55
2022/05/12 02:02:51;;;;;;;3.83;2.57;;;18.50;86.40;;;;;;5020790;28;20491;-56
2022/05/12 02:05:19;;;;;;;4.20;2.97;;;18.40;86.60;;;;;;5022172;28;20480;-55
2022/05/12 02:07:48;;;;;;;4.70;3.33;;;18.40;86.90;;;;;;5021232;28;21032;-55
2022/05/12 02:10:18;;;;;;;5.30;2.67;;;18.30;87.00;;;;;;5020725;28;20477;-55
2022/05/12 02:12:45;;;;;;;3.73;3.13;;;18.20;87.30;;;;;;5020853;28;20476;-55
2022/05/12 02:15:13;;;;;;;6.30;3.47;;;18.20;87.90;;;;;;5021891;28;20973;-55
2022/05/12 02:17:40;;;;;;;3.67;2.90;;;18.00;87.90;;;;;;5020158;28;20555;-54
2022/05/12 02:20:09;;;;;;;4.57;3.70;;;18.00;88.10;;;;;;5015826;28;20486;-54
2022/05/12 02:22:36;;;;;;;4.90;3.40;;;17.90;88.30;;;;;;5019565;28;20488;-54
2022/05/12 02:25:04;;;;;;;4.93;3.73;;;17.80;88.50;;;;;;5019818;28;20928;-55
2022/05/12 02:27:30;;;;;;;3.60;2.73;;;17.80;88.70;;;;;;5020801;28;20997;-55
2022/05/12 02:29:57;;;;;;;7.03;3.50;;;17.70;88.60;;;;;;5019449;28;20543;-55
2022/05/12 02:32:27;;;;;;;3.73;2.67;;;17.70;88.90;;;;;;5020888;28;20488;-55
2022/05/12 02:34:53;;;;;;;7.00;3.17;;;17.70;88.90;;;;;;5020249;28;20492;-54
2022/05/12 02:37:20;;;;;;;4.03;2.77;;;17.80;88.80;;;;;;5022116;28;20499;-54
2022/05/12 02:39:47;;;;;;;3.13;2.90;;;17.80;88.80;;;;;;5018726;28;20491;-55
2022/05/12 02:42:14;;;;;;;3.70;2.87;;;17.80;88.80;;;;;;5019893;28;21058;-54
2022/05/12 02:44:40;;;;;;;3.90;2.47;;;17.80;88.50;;;;;;5019365;28;20493;-54
2022/05/12 02:47:08;;;;;;;6.83;2.97;;;17.90;88.10;;;;;;5020126;28;20512;-54
2022/05/12 02:49:37;;;;;;;3.87;3.10;;;18.00;87.70;;;;;;5021086;28;20992;-54
2022/05/12 02:52:05;;;;;;;6.20;3.17;;;18.10;87.40;;;;;;5019661;28;20477;-54
2022/05/12 02:54:32;;;;;;;6.97;3.10;;;18.10;87.20;;;;;;5019785;28;20480;-54
2022/05/12 02:56:59;;;;;;;3.07;2.77;;;18.10;87.10;;;;;;5012836;28;20499;-54
2022/05/12 02:59:25;;;;;;;6.93;3.07;;;18.00;87.50;;;;;;5012982;28;20572;-55
2022/05/12 03:01:52;;;;;;;4.57;3.07;;;18.00;87.30;;;;;;5031956;28;20489;-54
2022/05/12 03:04:19;;;;;;;3.87;2.97;;;18.00;87.10;;;;;;5004656;28;20962;-54
2022/05/12 03:06:48;;;;;;;3.50;3.20;;;18.00;87.10;;;;;;4999433;28;20508;-54
2022/05/12 03:09:14;;;;;;;3.10;2.67;;;17.90;87.70;;;;;;5000689;28;21183;-54
2022/05/12 03:11:42;;;;;;;4.13;2.93;;;17.80;87.90;;;;;;4998683;28;20485;-54
2022/05/12 03:14:09;;;;;;;5.80;3.30;;;17.70;88.40;;;;;;4995663;28;20580;-54
2022/05/12 03:16:36;;;;;;;3.37;2.53;;;17.60;88.00;;;;;;4999287;28;20481;-54
2022/05/12 03:19:05;;;;;;;3.57;3.27;;;17.60;88.20;;;;;;5000521;28;20878;-54
2022/05/12 03:21:31;;;;;;;7.27;3.47;;;17.50;88.90;;;;;;4999454;28;20568;-54
2022/05/12 03:23:59;;;;;;;3.53;3.20;;;17.50;88.90;;;;;;4996591;28;20924;-54
2022/05/12 03:26:27;;;;;;;3.13;2.83;;;17.50;88.50;;;;;;5003604;28;20485;-55
2022/05/12 03:28:54;;;;;;;3.30;3.00;;;17.50;88.50;;;;;;5018563;28;20492;-54
2022/05/12 03:31:21;;;;;;;4.60;3.17;;;17.40;88.40;;;;;;5020076;28;20479;-54
2022/05/12 03:33:48;;;;;;;6.50;3.67;;;17.40;88.60;;;;;;5019363;28;20551;-54
2022/05/12 03:36:16;;;;;;;7.33;3.30;;;17.40;89.30;;;;;;5018992;28;20998;-54
2022/05/12 03:38:43;;;;;;;3.00;2.63;;;17.40;88.90;;;;;;5015019;28;20560;-55
2022/05/12 03:41:11;;;;;;;8.97;3.60;;;17.40;89.40;;;;;;5018607;28;20476;-54
2022/05/12 03:46:22;;;;;;;6.20;3.00;;;17.50;89.60;;;;;;4991381;28;20529;-54
2022/05/12 03:48:48;;;;;;;4.20;3.80;;;17.50;89.80;;;;;;5019560;28;20488;-54
2022/05/12 03:51:15;;;;;;;10.70;2.80;;;17.50;90.00;;;;;;5023047;28;20539;-54
2022/05/12 03:53:42;;;;;;;5.17;3.60;;;17.50;89.80;;;;;;5021452;28;20493;-54
2022/05/12 03:56:11;;;;;;;3.17;2.87;;;17.40;90.30;;;;;;5023522;28;20503;-55
2022/05/12 03:58:38;;;;;;;2.77;2.47;;;17.40;90.50;;;;;;5024191;28;20479;-55
2022/05/12 04:01:05;;;;;;;8.63;3.13;;;17.30;90.60;;;;;;5022800;28;20481;-55
2022/05/12 04:03:32;;;;;;;4.00;3.30;;;17.20;90.70;;;;;;5023285;28;20492;-54
2022/05/12 04:06:01;;;;;;;4.80;3.30;;;17.10;90.80;;;;;;5021558;28;20480;-58
2022/05/12 04:08:28;;;;;;;6.60;3.40;;;17.20;90.70;;;;;;5024132;28;20484;-54
2022/05/12 04:10:55;;;;;;;7.27;2.33;;;17.20;90.70;;;;;;5022906;28;20495;-54
2022/05/12 04:13:23;;;;;;;3.20;2.57;;;17.20;90.80;;;;;;5022286;28;20696;-54
2022/05/12 04:15:50;;;;;;;5.30;3.00;;;17.20;90.80;;;;;;5022281;28;21032;-55
2022/05/12 04:18:17;;;;;;;3.03;2.73;;;17.20;90.80;;;;;;5023475;28;20488;-54
2022/05/12 04:20:44;;;;;;;5.00;3.10;;;17.20;90.80;;;;;;5022084;28;20492;-55
2022/05/12 04:23:11;;;;;;;14.23;3.93;;;17.20;90.80;;;;;;5021793;28;20489;-54
2022/05/12 04:25:38;;;;;;;4.57;3.00;;;17.20;90.70;;;;;;5021459;28;20483;-55
2022/05/12 04:28:05;;;;;;;3.70;2.63;;;17.30;90.80;;;;;;5016630;28;20484;-54
2022/05/12 04:30:33;;;;;;;6.20;3.33;;;17.30;90.70;;;;;;5023100;28;20481;-54
2022/05/12 04:35:11;;;;;;;3.70;3.40;;;17.30;90.70;;;;;;5022817;28;21057;-54
2022/05/12 04:35:46;;;;;;;5.00;3.03;;;17.40;90.70;;;;;;5020547;28;20526;-55
2022/05/12 04:38:13;;;;;;;9.63;3.03;;;17.30;91.00;;;;;;5022281;28;20476;-55
2022/05/12 04:40:40;;;;;;;8.80;3.40;;;17.20;91.10;;;;;;5019960;28;20242;-55
2022/05/12 04:43:07;;;;;;;3.83;3.33;;;17.10;91.40;;;;;;5023421;28;20491;-55
2022/05/12 04:45:36;;;;;;;3.90;3.27;;;17.00;91.80;;;;;;5023190;28;20921;-55
2022/05/12 04:48:03;;;;;;;6.63;3.03;;;16.90;92.10;;;;;;5020119;28;20481;-55
2022/05/12 04:50:32;;;;;;;3.50;3.20;;;16.80;92.00;;;;;;5021844;28;20901;-54
2022/05/12 04:53:00;;;;;;;5.70;2.63;;;16.80;92.30;;;;;;5020827;28;20487;-56
2022/05/12 04:55:28;;;;;;;4.70;3.50;;;16.90;92.50;;;;;;5021599;28;20484;-54
2022/05/12 04:57:56;;;;;;;5.70;3.80;;;16.90;92.20;;;;;;5002683;28;20477;-55
2022/05/12 05:00:25;;;;;;;2.73;2.37;;;16.90;92.00;;;;;;5002038;28;20851;-54
2022/05/12 05:02:54;;;;;;;9.10;3.10;;;17.10;92.10;;;;;;5003100;28;20485;-54
2022/05/12 05:05:21;;;;;;;5.80;3.10;;;17.00;91.90;;;;;;5004164;28;20494;-54
2022/05/12 05:07:47;;;;;;;3.90;3.03;;;17.20;91.90;;;;;;5010397;28;20628;-55
2022/05/12 05:10:15;;;;;;;5.03;3.27;;;17.20;92.10;;;;;;5022563;28;20485;-54
2022/05/12 05:12:42;;;;;;;5.60;2.97;;;17.20;92.20;;;;;;5021461;28;20473;-54
2022/05/12 05:15:11;;;;;;;4.97;2.70;;;17.10;92.30;;;;;;5022986;28;20967;-55
2022/05/12 05:17:38;;;;;;;4.70;4.13;;;17.20;92.50;;;;;;5022544;28;20481;-55
2022/05/12 05:20:09;;;;;;;3.93;2.87;;;17.20;92.50;;;;;;5012657;28;20554;-55
2022/05/12 05:22:36;;;;;;;3.23;2.93;;;17.30;92.60;;;;;;5035942;28;20985;-55
2022/05/12 05:25:03;;;;;;;4.77;3.10;;;17.50;92.70;;;;;;5021947;28;20487;-55
2022/05/12 05:27:31;;;;;;;2.80;2.57;;;17.60;92.30;;;;;;5022847;28;21036;-54
2022/05/12 05:29:58;;;;;;;4.03;2.87;;;17.70;92.70;;;;;;5020926;28;20481;-55
2022/05/12 05:32:27;;;;;;;4.80;3.30;;;17.90;92.40;;;;;;5021892;28;20868;-55
2022/05/12 05:34:53;;;;;;;3.53;3.07;;;17.90;92.50;;;;;;5017380;28;20480;-54
2022/05/12 05:37:21;;;;;;;8.07;3.27;;;17.90;92.00;;;;;;5022226;28;20485;-55
2022/05/12 05:39:48;;;;;;;3.63;3.20;;;18.00;92.00;;;;;;5020771;28;20484;-55
2022/05/12 05:42:17;;;;;;;4.07;3.27;;;18.00;91.90;;;;;;5021354;28;20535;-55
2022/05/12 05:44:44;;;;;;;5.17;3.10;;;18.00;91.80;;;;;;5019806;28;20489;-54
2022/05/12 05:47:11;;;;;;;4.40;2.83;;;18.10;91.80;;;;;;5021626;28;20485;-54
2022/05/12 05:49:38;;;;;;;5.20;3.10;;;18.10;92.20;;;;;;5020746;28;20481;-54
2022/05/12 05:54:52;;;;;;;5.67;3.10;;;18.20;92.20;;;;;;5018518;28;20479;-54
2022/05/12 05:57:23;;;;;;;4.87;3.10;;;18.20;92.10;;;;;;5001167;28;20483;-54
2022/05/12 05:59:50;;;;;;;4.70;2.97;;;18.20;91.30;;;;;;5001134;28;20485;-54
2022/05/12 06:02:17;;;;;;;7.63;3.37;;;18.20;91.60;;;;;;5010529;28;20484;-55
2022/05/12 06:04:44;;;;;;;4.20;2.80;;;18.20;91.60;;;;;;5020055;28;20500;-54
2022/05/12 06:07:11;;;;;;;5.63;4.10;;;18.20;92.00;;;;;;5020192;28;20508;-54
2022/05/12 06:09:37;;;;;;;3.73;3.00;;;18.20;91.30;;;;;;5021058;28;20603;-54
2022/05/12 06:12:06;;;;;;;4.40;2.87;;;18.10;91.40;;;;;;5020239;28;20480;-54
2022/05/12 06:14:33;;;;;;;7.63;3.83;;;18.10;91.70;;;;;;5020810;28;20480;-54
2022/05/12 06:17:00;;;;;;;8.17;3.13;;;18.10;91.60;;;;;;5019435;28;20477;-54
2022/05/12 06:19:26;;;;;;;5.50;3.13;;;18.20;91.70;;;;;;5020131;28;21028;-54
2022/05/12 06:21:53;;;;;;;4.87;2.90;;;18.10;92.10;;;;;;5020509;28;20492;-54
2022/05/12 06:24:20;;;;;;;9.50;3.10;;;18.20;91.60;;;;;;5019589;28;20504;-54
2022/05/12 06:26:46;;;;;;;3.87;2.87;;;18.20;91.60;;;;;;5019653;28;20484;-55
2022/05/12 06:29:15;;;;;;;5.50;2.83;;;18.20;91.10;;;;;;5020677;28;20480;-54
2022/05/12 06:31:42;;;;;;;7.57;3.53;;;18.20;91.40;;;;;;5018599;28;20473;-54
2022/05/12 06:34:08;;;;;;;5.70;3.10;;;18.30;91.20;;;;;;5020138;28;20492;-54
2022/05/12 06:36:35;;;;;;;4.77;3.07;;;18.30;91.10;;;;;;5019922;28;20488;-55
2022/05/12 06:39:02;;;;;;;7.40;3.33;;;18.30;91.10;;;;;;5019550;28;20488;-54
2022/05/12 06:41:29;;;;;;;7.20;2.43;;;18.30;91.30;;;;;;5020032;28;20563;-54
2022/05/12 06:43:56;;;;;;;6.20;3.13;;;18.30;90.80;;;;;;5019220;28;20492;-54
2022/05/12 06:46:25;;;;;;;7.57;2.87;;;18.40;90.80;;;;;;5018901;28;20795;-55
2022/05/12 06:48:53;;;;;;;13.63;3.37;;;18.40;91.20;;;;;;5017599;28;20481;-54
2022/05/12 06:51:20;;;;;;;7.43;2.87;;;18.40;91.70;;;;;;5019516;28;20597;-54
2022/05/12 06:53:47;;;;;;;5.00;3.40;;;18.50;91.20;;;;;;5016698;28;20812;-54
2022/05/12 06:56:14;;;;;;;6.83;2.27;;;18.40;91.20;;;;;;5019710;28;20851;-54
2022/05/12 06:58:41;;;;;;;5.60;2.50;;;18.40;91.40;;;;;;5019601;28;20485;-55
2022/05/12 07:01:09;;;;;;;4.10;3.10;;;18.40;91.60;;;;;;5019487;28;20477;-54
2022/05/12 07:03:38;;;;;;;6.00;2.93;;;18.30;91.60;;;;;;5018601;28;20492;-55
2022/05/12 07:06:06;;;;;;;6.20;3.07;;;18.30;91.50;;;;;;5015990;28;20477;-59
2022/05/12 07:08:33;;;;;;;6.10;2.67;;;18.30;91.10;;;;;;5017935;28;20485;-55
2022/05/12 07:10:59;;;;;;;4.10;2.53;;;18.40;91.30;;;;;;5018340;28;20504;-54
2022/05/12 07:13:26;;;;;;;7.30;2.70;;;18.50;91.60;;;;;;5015595;28;20481;-54
2022/05/12 07:15:53;;;;;;;5.10;2.23;;;18.50;90.80;;;;;;5017023;28;20510;-55
2022/05/12 07:18:20;;;;;;;6.37;2.77;;;18.60;90.60;;;;;;5020887;28;20487;-55
2022/05/12 07:26:36;;;;;;;8.03;2.70;;;18.70;90.50;;;;;;4998044;28;20494;-54
2022/05/12 07:29:03;;;;;;;5.50;2.10;;;18.60;90.50;;;;;;5005758;28;20852;-55
2022/05/12 07:31:29;;;;;;;7.97;2.80;;;18.70;90.20;;;;;;5007646;28;20876;-54
2022/05/12 07:33:57;;;;;;;3.97;2.47;;;18.70;90.30;;;;;;5000064;28;20491;-54
2022/05/12 07:36:27;;;;;;;10.10;3.17;;;18.70;90.30;;;;;;5006276;28;20485;-54
2022/05/12 07:38:55;;;;;;;6.33;3.03;;;18.80;90.30;;;;;;4998982;28;20488;-55
2022/05/12 07:41:22;;;;;;;4.57;2.80;;;18.90;90.40;;;;;;5002158;28;20489;-54
2022/05/12 07:43:51;;;;;;;8.20;3.17;;;18.90;90.60;;;;;;5004623;28;20485;-54
2022/05/12 07:46:19;;;;;;;7.40;2.53;;;18.80;91.20;;;;;;5002092;28;20488;-54
2022/05/12 07:48:46;;;;;;;6.73;3.40;;;18.80;91.40;;;;;;4995963;28;20929;-55
2022/05/12 07:51:14;;;;;;;5.23;3.10;;;18.80;90.70;;;;;;4994597;28;20920;-54
2022/05/12 07:53:42;;;;;;;8.77;2.70;;;18.80;90.90;;;;;;5005632;28;20476;-55
2022/05/12 07:56:10;;;;;;;7.60;2.93;;;18.90;90.80;;;;;;5000715;28;20516;-57
2022/05/12 07:58:37;;;;;;;14.47;3.20;;;19.00;91.10;;;;;;5006595;28;20493;-54
2022/05/12 08:01:05;;;;;;;2.93;2.47;;;19.00;90.40;;;;;;4995836;28;20978;-54
2022/05/12 08:03:34;;;;;;;5.13;2.80;;;19.10;90.60;;;;;;4997385;28;20487;-55
2022/05/12 08:06:02;;;;;;;8.87;2.87;;;19.10;90.80;;;;;;4997274;28;20880;-54
2022/05/12 08:08:29;;;;;;;5.60;3.30;;;19.10;90.60;;;;;;5001974;28;21351;-54
2022/05/12 08:10:57;;;;;;;5.97;2.80;;;19.00;90.30;;;;;;5000947;28;20476;-54
2022/05/12 08:13:25;;;;;;;4.10;2.83;;;19.00;90.20;;;;;;4993695;28;21059;-54
2022/05/12 08:15:53;;;;;;;5.00;3.20;;;19.10;90.80;;;;;;4998547;28;20537;-54
2022/05/12 08:18:22;;;;;;;9.07;2.60;;;19.00;90.40;;;;;;5002205;28;20487;-54
2022/05/12 08:20:50;;;;;;;6.90;2.70;;;18.90;89.50;;;;;;4998707;28;20493;-54
2022/05/12 08:23:18;;;;;;;6.03;2.80;;;18.90;90.50;;;;;;4984838;28;20486;-54
2022/05/12 08:25:46;;;;;;;3.10;2.17;;;19.10;90.40;;;;;;5019235;28;20492;-54
2022/05/12 08:28:16;;;;;;;5.53;2.27;;;19.10;90.10;;;;;;5003519;28;20488;-53
2022/05/12 08:30:44;;;;;;;4.27;2.90;;;19.20;90.30;;;;;;4984514;28;20574;-54
2022/05/12 08:33:11;;;;;;;6.83;2.30;;;19.30;90.20;;;;;;5011669;28;20482;-53
2022/05/12 08:35:39;;;;;;;5.73;2.80;;;19.30;90.30;;;;;;5006364;28;20996;-54
2022/05/12 08:38:07;;;;;;;4.63;2.77;;;19.30;89.30;;;;;;5000982;28;20856;-53
2022/05/12 08:40:44;;;;;;;6.33;3.17;;;19.60;90.90;;;;;;5009334;28;20483;-53
2022/05/12 08:43:17;;;;;;;10.00;2.20;;;19.60;88.20;;;;;;4998628;28;20801;-53
2022/05/12 08:45:45;;;;;;;11.83;3.00;;;19.80;90.00;;;;;;5004696;28;20542;-53
2022/05/12 08:48:15;;;;;;;5.53;2.40;;;19.90;87.70;;;;;;5000968;28;21044;-53
2022/05/12 08:50:42;;;;;;;6.43;2.93;;;20.00;88.30;;;;;;5000870;28;20877;-53
2022/05/12 08:53:14;;;;;;;10.10;2.50;;;20.20;86.40;;;;;;4997547;28;20908;-53
2022/05/12 08:55:47;;;;;;;7.20;2.73;;;20.40;85.40;;;;;;5003591;28;20997;-54
2022/05/12 08:58:22;;;;;;;6.87;2.70;;;20.40;86.80;;;;;;4990489;28;20872;-53
2022/05/12 09:00:59;;;;;;;10.33;2.13;;;20.60;88.70;;;;;;4995941;28;21028;-53
2022/05/12 09:03:34;;;;;;;4.00;2.53;;;20.80;89.30;;;;;;5006627;28;20512;-53
2022/05/12 09:06:04;;;;;;;4.33;2.50;;;21.10;87.80;;;;;;5000024;28;20482;-54
2022/05/12 09:08:38;;;;;;;5.63;2.60;;;20.90;84.10;;;;;;5005988;28;20859;-54
2022/05/12 09:11:07;;;;;;;4.23;1.73;;;21.10;86.10;;;;;;5007780;28;20486;-53
2022/05/12 09:13:41;;;;;;;4.90;2.13;;;21.10;83.60;;;;;;5006309;28;20476;-53
2022/05/12 09:16:15;;;;;;;7.90;2.20;;;21.20;84.40;;;;;;5004663;28;20475;-54
2022/05/12 09:18:42;;;;;;;5.50;1.80;;;21.20;82.00;;;;;;5004116;28;21035;-54
2022/05/12 09:21:11;;;;;;;5.10;2.30;;;21.20;82.70;;;;;;5009299;28;20479;-53
2022/05/12 09:23:38;;;;;;;6.40;2.50;;;21.00;83.20;;;;;;5000282;28;20489;-53
2022/05/12 09:26:30;;;;;;;5.60;2.17;;;20.90;82.70;;;;;;5004441;28;20491;-53
2022/05/12 09:29:10;;;;;;;7.53;1.80;;;21.10;84.30;;;;;;4998156;28;20495;-54
2022/05/12 09:31:39;;;;;;;6.90;2.53;;;21.10;82.30;;;;;;4993200;28;20493;-53
2022/05/12 09:34:16;;;;;;;8.87;2.33;;;21.10;83.50;;;;;;4990109;28;21035;-54
2022/05/12 09:36:42;;;;;;;4.43;2.57;;;21.10;82.20;;;;;;4998326;28;20499;-53
2022/05/12 09:39:09;;;;;;;6.70;2.00;;;21.20;82.80;;;;;;4997446;28;20951;-54
2022/05/12 09:41:40;;;;;;;5.20;1.90;;;21.20;82.00;;;;;;5000018;28;20479;-53
2022/05/12 09:44:20;;;;;;;7.70;2.43;;;21.10;80.50;;;;;;5006262;28;20492;-53
2022/05/12 09:46:57;;;;;;;8.23;1.70;;;21.30;82.80;;;;;;5005754;28;20479;-53
2022/05/12 09:49:30;;;;;;;15.80;2.30;;;21.40;82.60;;;;;;4991009;28;20965;-54
2022/05/12 09:51:57;;;;;;;4.53;1.80;;;21.50;83.00;;;;;;5002395;28;20484;-53
2022/05/12 09:54:28;;;;;;;5.53;1.70;;;21.80;84.10;;;;;;4999523;28;21057;-55
2022/05/12 09:57:12;;;;;;;6.83;2.27;;;21.90;80.90;;;;;;4994354;28;20500;-54
2022/05/12 09:59:42;;;;;;;3.03;2.20;;;22.00;81.60;;;;;;5006676;28;20582;-53
2022/05/12 10:08:06;;;;;;;5.57;2.60;;;22.10;81.00;;;;;;4978285;28;20511;-53
2022/05/12 10:10:34;;;;;;;6.30;2.13;;;21.80;81.50;;;;;;5002751;28;20489;-53
2022/05/12 10:13:05;;;;;;;6.83;2.13;;;21.90;81.20;;;;;;5004145;28;20484;-53
2022/05/12 10:15:37;;;;;;;4.77;2.33;;;22.10;83.20;;;;;;5003054;28;21200;-53
2022/05/12 10:18:10;;;;;;;6.30;2.20;;;22.10;81.50;;;;;;4990773;28;20480;-53
2022/05/12 10:20:42;;;;;;;3.67;2.00;;;22.40;81.00;;;;;;5005216;28;20490;-53
2022/05/12 10:23:17;;;;;;;5.63;2.33;;;22.40;81.80;;;;;;4993108;28;20890;-53
2022/05/12 10:26:00;;;;;;;9.03;3.00;;;22.20;80.00;;;;;;5004511;28;20487;-53
2022/05/12 10:28:46;;;;;;;5.70;2.40;;;22.20;81.40;;;;;;4994306;28;20510;-54
2022/05/12 10:31:23;;;;;;;9.97;2.70;;;22.20;81.50;;;;;;5001993;28;20481;-53
2022/05/12 10:34:01;;;;;;;8.83;3.33;;;22.40;83.30;;;;;;4997462;28;20492;-53
2022/05/12 10:36:43;;;;;;;5.90;2.40;;;22.50;82.40;;;;;;5004141;28;20482;-55
2022/05/12 10:39:20;;;;;;;11.90;2.53;;;22.50;81.00;;;;;;4992575;28;20495;-54
2022/05/12 10:42:00;;;;;;;19.53;2.87;;;22.50;80.20;;;;;;5006641;28;20481;-53
2022/05/12 10:44:54;;;;;;;12.27;2.30;;;22.50;82.40;;;;;;5002004;28;20486;-53
2022/05/12 10:47:33;;;;;;;7.30;3.10;;;22.40;81.80;;;;;;5001067;28;20485;-53
2022/05/12 10:50:19;;;;;;;4.00;2.20;;;22.30;84.00;;;;;;4989374;28;20468;-53
2022/05/12 10:52:53;;;;;;;7.27;2.60;;;21.90;81.30;;;;;;5003784;28;20483;-53
2022/05/12 10:55:28;;;;;;;4.37;2.40;;;21.90;83.40;;;;;;4998456;28;20867;-52
2022/05/12 10:58:19;;;;;;;5.20;2.40;;;22.20;84.40;;;;;;5002870;28;20726;-54
2022/05/12 11:01:05;;;;;;;6.20;2.60;;;22.40;82.70;;;;;;4995055;28;20481;-53
2022/05/12 11:03:39;;;;;;;3.37;2.47;;;22.50;83.10;;;;;;5000120;28;20482;-53
2022/05/12 11:06:10;;;;;;;3.43;2.03;;;22.30;81.30;;;;;;4991782;28;20484;-53
2022/05/12 11:08:43;;;;;;;7.73;2.57;;;22.30;82.90;;;;;;4993834;28;20573;-52
2022/05/12 11:11:15;;;;;;;9.93;2.50;;;22.40;82.90;;;;;;4991913;28;20473;-53
2022/05/12 11:13:49;;;;;;;2.87;2.30;;;22.60;82.50;;;;;;4997232;28;20480;-53
2022/05/12 11:16:19;;;;;;;2.70;2.10;;;22.40;80.80;;;;;;5000409;28;20482;-53
2022/05/12 11:18:52;;;;;;;6.10;1.97;;;22.50;83.80;;;;;;5003821;28;20476;-53
2022/05/12 11:21:23;;;;;;;4.10;2.60;;;22.50;82.10;;;;;;4997753;28;20499;-53
2022/05/12 11:24:21;;;;;;;3.70;1.73;;;22.20;80.30;;;;;;4994422;28;21045;-53
2022/05/12 11:27:03;;;;;;;4.87;2.13;;;22.40;80.00;;;;;;4985052;28;20481;-53
2022/05/12 11:29:45;;;;;;;12.70;2.23;;;22.80;84.10;;;;;;4994935;28;20484;-53
2022/05/12 11:32:29;;;;;;;4.10;2.60;;;23.00;81.10;;;;;;4988260;28;20470;-53
2022/05/12 11:35:02;;;;;;;3.97;2.00;;;23.30;81.20;;;;;;4992255;28;20483;-53
2022/05/12 11:37:34;;;;;;;4.63;1.97;;;23.50;80.30;;;;;;4991006;28;20489;-54
2022/05/12 11:40:04;;;;;;;3.30;1.80;;;23.50;78.60;;;;;;4983012;28;20520;-53
2022/05/12 11:44:23;;;;;;;8.17;2.60;;;23.70;79.40;;;;;;4996336;28;20488;-53
2022/05/12 11:45:35;;;;;;;3.00;2.43;;;23.60;79.70;;;;;;4989329;28;20477;-53
2022/05/12 11:48:31;;;;;;;5.53;2.60;;;23.30;79.90;;;;;;4996142;28;20483;-54
2022/05/12 11:51:25;;;;;;;4.40;2.17;;;23.30;80.10;;;;;;4993398;28;20509;-54
2022/05/12 11:53:57;;;;;;;3.57;2.40;;;23.60;82.00;;;;;;4990185;28;20983;-54
2022/05/12 11:56:42;;;;;;;8.10;1.97;;;23.40;81.60;;;;;;5002051;28;20489;-53
2022/05/12 11:59:20;;;;;;;5.50;1.80;;;23.30;79.60;;;;;;5002948;28;20484;-52
2022/05/12 12:01:55;;;;;;;3.87;2.50;;;23.30;79.80;;;;;;4997065;28;21119;-54
2022/05/12 12:04:45;;;;;;;8.90;2.47;;;23.30;80.40;;;;;;5001337;28;20599;-54
2022/05/12 12:07:17;;;;;;;3.43;1.90;;;23.50;81.10;;;;;;4991125;28;20935;-54
2022/05/12 12:09:54;;;;;;;5.23;2.30;;;23.90;82.80;;;;;;4997944;28;20479;-54
2022/05/12 12:12:52;;;;;;;6.27;1.93;;;23.50;75.80;;;;;;5005717;28;20480;-53
2022/05/12 12:15:40;;;;;;;4.00;2.80;;;23.50;77.80;;;;;;4987092;28;20473;-54
2022/05/12 12:18:42;;;;;;;6.40;2.20;;;23.60;81.30;;;;;;5002237;28;20477;-54
2022/05/12 12:21:48;;;;;;;3.07;1.90;;;23.90;78.20;;;;;;5000556;28;20472;-54
2022/05/12 12:24:43;;;;;;;3.60;1.73;;;24.20;79.60;;;;;;5004863;28;20552;-54
2022/05/12 12:27:44;;;;;;;6.63;1.90;;;24.30;76.50;;;;;;5017117;28;20480;-53
2022/05/12 12:30:48;;;;;;;16.60;1.97;;;24.10;76.60;;;;;;4997333;28;20488;-55
2022/05/12 12:33:35;;;;;;;5.27;2.10;;;24.20;77.00;;;;;;4988282;28;20488;-54
2022/05/12 12:36:04;;;;;;;3.93;1.90;;;24.10;76.50;;;;;;4976102;28;20487;-53
2022/05/12 12:38:56;;;;;;;2.53;1.60;;;24.10;78.20;;;;;;5008504;28;20481;-53
2022/05/12 12:41:42;;;;;;;8.90;2.10;;;24.30;77.10;;;;;;4989389;28;20980;-54
2022/05/12 12:44:14;;;;;;;5.83;2.47;;;24.30;77.50;;;;;;5003208;28;20477;-54
2022/05/12 12:47:00;;;;;;;3.67;1.90;;;24.50;78.60;;;;;;4999130;28;20888;-54
2022/05/12 12:49:29;;;;;;;4.43;2.00;;;24.40;77.90;;;;;;4991687;28;20518;-53
2022/05/12 12:52:00;;;;;;;4.30;1.90;;;24.50;77.40;;;;;;4994495;28;20484;-54
2022/05/12 12:57:19;;;;;;;3.23;1.70;;;24.70;78.20;;;;;;5003185;28;20560;-54
2022/05/12 12:59:50;;;;;;;8.63;3.40;;;24.70;77.10;;;;;;4999316;28;21183;-54
2022/05/12 13:02:30;;;;;;;4.43;3.00;;;24.90;75.90;;;;;;5008040;28;20477;-54
2022/05/12 13:05:01;;;;;;;4.40;1.63;;;25.00;78.30;;;;;;4997567;28;21405;-54
2022/05/12 13:07:30;;;;;;;5.10;2.07;;;25.20;76.50;;;;;;4977337;28;20488;-54
2022/05/12 13:09:58;;;;;;;3.60;1.90;;;25.30;74.80;;;;;;5005635;28;20482;-55
2022/05/12 13:12:28;;;;;;;3.57;2.07;;;25.40;74.70;;;;;;4997923;28;20493;-54
2022/05/12 13:14:56;;;;;;;2.63;1.80;;;25.40;75.30;;;;;;4984672;28;20492;-55
2022/05/12 13:17:27;;;;;;;5.97;2.50;;;25.30;76.30;;;;;;5000427;28;20475;-56
2022/05/12 13:19:57;;;;;;;5.20;1.93;;;24.80;75.10;;;;;;4988887;28;20545;-52
2022/05/12 13:22:26;;;;;;;2.97;1.23;;;25.00;78.10;;;;;;5008396;28;20547;-54
2022/05/12 13:24:55;;;;;;;4.63;2.17;;;25.00;73.70;;;;;;4997644;28;20481;-54